Weather at Rimatara Airport

Public forecast

Using degrees Celsius for public forecast. Weather courtesy of forecast.io.

Closest aviation weather report (METAR) to Rimatara Airport

Closest report is Mauke Airport, 294.8 nm (546.0 km) WNW. Retrieved 2021/07/23 21:00 UTC (56 minutes ago):

NCMK 232100Z AUTO 12006KT //// ////// 25/21 Q1018

Closest aviation forecast (TAF) to Rimatara Airport

Closest forecast is Rarotonga International Airport, 399.3 nm (739.4 km) W. Retrieved 2021/07/23 18:00 UTC (4 hours ago):

TAF NCRG 231702Z 2318/2418 10005KT 9999 SCT020 BKN040 PROB30 TEMPO 2318/2320 5000 SHRA BKN015